sensor_id;sensor_type;location;lat;lon;timestamp;temperature;humidity
37658;DHT22;23500;53.268;8.308;2023-03-01T00:00:46;14.30;61.70
37658;DHT22;23500;53.268;8.308;2023-03-01T00:03:12;14.30;61.90
37658;DHT22;23500;53.268;8.308;2023-03-01T00:05:44;14.30;61.70
37658;DHT22;23500;53.268;8.308;2023-03-01T00:08:10;14.30;62.40
37658;DHT22;23500;53.268;8.308;2023-03-01T00:10:36;14.20;62.00
37658;DHT22;23500;53.268;8.308;2023-03-01T00:13:02;14.20;62.10
37658;DHT22;23500;53.268;8.308;2023-03-01T00:15:31;14.20;62.00
37658;DHT22;23500;53.268;8.308;2023-03-01T00:17:56;14.20;62.20
37658;DHT22;23500;53.268;8.308;2023-03-01T00:20:22;14.20;61.80
37658;DHT22;23500;53.268;8.308;2023-03-01T00:22:48;14.20;62.00
37658;DHT22;23500;53.268;8.308;2023-03-01T00:25:14;14.10;61.70
37658;DHT22;23500;53.268;8.308;2023-03-01T00:27:39;14.10;61.90
37658;DHT22;23500;53.268;8.308;2023-03-01T00:30:05;14.10;61.90
37658;DHT22;23500;53.268;8.308;2023-03-01T00:32:31;14.10;61.90
37658;DHT22;23500;53.268;8.308;2023-03-01T00:34:57;14.10;61.30
37658;DHT22;23500;53.268;8.308;2023-03-01T00:37:23;14.10;61.80
37658;DHT22;23500;53.268;8.308;2023-03-01T00:39:49;14.00;61.70
37658;DHT22;23500;53.268;8.308;2023-03-01T00:42:15;14.00;61.80
37658;DHT22;23500;53.268;8.308;2023-03-01T00:44:41;14.00;61.70
37658;DHT22;23500;53.268;8.308;2023-03-01T00:47:07;14.00;61.70
37658;DHT22;23500;53.268;8.308;2023-03-01T00:49:33;14.00;61.80
37658;DHT22;23500;53.268;8.308;2023-03-01T00:51:58;14.00;61.80
37658;DHT22;23500;53.268;8.308;2023-03-01T00:54:24;13.90;61.90
37658;DHT22;23500;53.268;8.308;2023-03-01T00:56:49;13.90;61.90
37658;DHT22;23500;53.268;8.308;2023-03-01T00:59:15;13.90;61.70
37658;DHT22;23500;53.268;8.308;2023-03-01T01:01:41;13.90;61.90
37658;DHT22;23500;53.268;8.308;2023-03-01T01:04:09;13.90;62.10
37658;DHT22;23500;53.268;8.308;2023-03-01T01:06:44;13.90;62.60
37658;DHT22;23500;53.268;8.308;2023-03-01T01:09:12;13.90;62.80
37658;DHT22;23500;53.268;8.308;2023-03-01T01:11:45;13.90;62.10
37658;DHT22;23500;53.268;8.308;2023-03-01T01:14:11;13.90;61.20
37658;DHT22;23500;53.268;8.308;2023-03-01T01:16:37;14.00;61.40
37658;DHT22;23500;53.268;8.308;2023-03-01T01:19:02;14.20;62.10
37658;DHT22;23500;53.268;8.308;2023-03-01T01:21:28;14.30;62.20
37658;DHT22;23500;53.268;8.308;2023-03-01T01:23:54;14.50;62.20
37658;DHT22;23500;53.268;8.308;2023-03-01T01:26:26;14.70;62.40
37658;DHT22;23500;53.268;8.308;2023-03-01T01:28:53;15.00;61.80
37658;DHT22;23500;53.268;8.308;2023-03-01T01:31:19;15.20;60.70
37658;DHT22;23500;53.268;8.308;2023-03-01T01:33:45;15.40;60.00
37658;DHT22;23500;53.268;8.308;2023-03-01T01:36:11;15.60;59.70
37658;DHT22;23500;53.268;8.308;2023-03-01T01:38:37;16.50;60.40
37658;DHT22;23500;53.268;8.308;2023-03-01T01:41:04;17.60;58.30
37658;DHT22;23500;53.268;8.308;2023-03-01T01:44:16;18.40;55.80
37658;DHT22;23500;53.268;8.308;2023-03-01T01:46:52;19.20;53.70
37658;DHT22;23500;53.268;8.308;2023-03-01T01:49:43;19.80;52.40
37658;DHT22;23500;53.268;8.308;2023-03-01T01:52:11;20.10;51.60
37658;DHT22;23500;53.268;8.308;2023-03-01T01:54:47;20.10;51.30
37658;DHT22;23500;53.268;8.308;2023-03-01T01:57:18;20.10;51.40
37658;DHT22;23500;53.268;8.308;2023-03-01T01:59:49;19.90;51.80
37658;DHT22;23500;53.268;8.308;2023-03-01T02:02:16;19.80;52.20
37658;DHT22;23500;53.268;8.308;2023-03-01T02:04:42;19.50;52.70
37658;DHT22;23500;53.268;8.308;2023-03-01T02:07:21;19.30;52.90
37658;DHT22;23500;53.268;8.308;2023-03-01T02:09:49;19.00;53.30
37658;DHT22;23500;53.268;8.308;2023-03-01T02:12:21;18.80;52.40
37658;DHT22;23500;53.268;8.308;2023-03-01T02:14:48;18.40;50.60
37658;DHT22;23500;53.268;8.308;2023-03-01T02:17:16;18.20;49.90
37658;DHT22;23500;53.268;8.308;2023-03-01T02:22:37;17.50;51.50
37658;DHT22;23500;53.268;8.308;2023-03-01T02:27:59;17.00;53.00
37658;DHT22;23500;53.268;8.308;2023-03-01T02:30:28;16.80;54.10
37658;DHT22;23500;53.268;8.308;2023-03-01T02:32:56;16.50;54.20
37658;DHT22;23500;53.268;8.308;2023-03-01T02:35:34;16.40;54.00
37658;DHT22;23500;53.268;8.308;2023-03-01T02:38:01;16.20;54.80
37658;DHT22;23500;53.268;8.308;2023-03-01T02:40:29;16.10;54.20
37658;DHT22;23500;53.268;8.308;2023-03-01T02:42:58;15.90;54.20
37658;DHT22;23500;53.268;8.308;2023-03-01T02:45:25;15.90;55.20
37658;DHT22;23500;53.268;8.308;2023-03-01T02:47:54;15.90;55.50
37658;DHT22;23500;53.268;8.308;2023-03-01T02:51:00;15.80;55.80
37658;DHT22;23500;53.268;8.308;2023-03-01T02:53:39;15.90;57.10
37658;DHT22;23500;53.268;8.308;2023-03-01T02:56:07;15.90;56.10
37658;DHT22;23500;53.268;8.308;2023-03-01T02:58:39;15.90;56.00
37658;DHT22;23500;53.268;8.308;2023-03-01T03:01:11;15.90;56.10
37658;DHT22;23500;53.268;8.308;2023-03-01T03:03:39;15.90;55.90
37658;DHT22;23500;53.268;8.308;2023-03-01T03:06:04;15.90;55.80
37658;DHT22;23500;53.268;8.308;2023-03-01T03:08:30;15.90;55.80
37658;DHT22;23500;53.268;8.308;2023-03-01T03:10:55;15.90;55.40
37658;DHT22;23500;53.268;8.308;2023-03-01T03:13:21;15.90;55.40
37658;DHT22;23500;53.268;8.308;2023-03-01T03:15:47;15.80;55.30
37658;DHT22;23500;53.268;8.308;2023-03-01T03:18:15;15.80;55.30
37658;DHT22;23500;53.268;8.308;2023-03-01T03:20:42;15.80;55.70
37658;DHT22;23500;53.268;8.308;2023-03-01T03:23:09;15.70;55.80
37658;DHT22;23500;53.268;8.308;2023-03-01T03:25:34;15.70;56.30
37658;DHT22;23500;53.268;8.308;2023-03-01T03:28:03;15.60;56.20
37658;DHT22;23500;53.268;8.308;2023-03-01T03:30:36;15.60;56.30
37658;DHT22;23500;53.268;8.308;2023-03-01T03:33:05;15.50;56.80
37658;DHT22;23500;53.268;8.308;2023-03-01T03:35:37;15.40;57.40
37658;DHT22;23500;53.268;8.308;2023-03-01T03:38:06;15.40;56.90
37658;DHT22;23500;53.268;8.308;2023-03-01T03:40:42;15.30;57.10
37658;DHT22;23500;53.268;8.308;2023-03-01T03:43:14;15.30;57.20
37658;DHT22;23500;53.268;8.308;2023-03-01T03:45:40;15.30;56.50
37658;DHT22;23500;53.268;8.308;2023-03-01T03:48:08;15.30;56.20
37658;DHT22;23500;53.268;8.308;2023-03-01T03:50:35;15.30;56.40
37658;DHT22;23500;53.268;8.308;2023-03-01T03:53:03;15.30;56.00
37658;DHT22;23500;53.268;8.308;2023-03-01T03:55:29;15.30;56.30
37658;DHT22;23500;53.268;8.308;2023-03-01T03:57:58;15.30;56.30
37658;DHT22;23500;53.268;8.308;2023-03-01T04:00:27;15.30;56.90
37658;DHT22;23500;53.268;8.308;2023-03-01T04:02:53;15.40;55.90
37658;DHT22;23500;53.268;8.308;2023-03-01T04:05:23;15.40;56.00
37658;DHT22;23500;53.268;8.308;2023-03-01T04:07:48;15.40;56.00
37658;DHT22;23500;53.268;8.308;2023-03-01T04:10:16;15.40;55.80
37658;DHT22;23500;53.268;8.308;2023-03-01T04:12:42;15.40;56.10
37658;DHT22;23500;53.268;8.308;2023-03-01T04:15:10;15.40;56.10
37658;DHT22;23500;53.268;8.308;2023-03-01T04:17:44;15.40;56.60
37658;DHT22;23500;53.268;8.308;2023-03-01T04:20:12;15.40;56.90
37658;DHT22;23500;53.268;8.308;2023-03-01T04:22:39;15.30;57.00
37658;DHT22;23500;53.268;8.308;2023-03-01T04:25:06;15.30;56.90
37658;DHT22;23500;53.268;8.308;2023-03-01T04:27:33;15.20;57.10
37658;DHT22;23500;53.268;8.308;2023-03-01T04:29:59;15.20;57.20
37658;DHT22;23500;53.268;8.308;2023-03-01T04:32:24;15.20;57.30
37658;DHT22;23500;53.268;8.308;2023-03-01T04:34:50;15.20;57.30
37658;DHT22;23500;53.268;8.308;2023-03-01T04:37:16;15.10;57.40
37658;DHT22;23500;53.268;8.308;2023-03-01T04:39:41;15.10;57.00
37658;DHT22;23500;53.268;8.308;2023-03-01T04:42:20;15.10;57.10
37658;DHT22;23500;53.268;8.308;2023-03-01T04:44:46;15.10;57.40
37658;DHT22;23500;53.268;8.308;2023-03-01T04:47:12;15.10;56.90
37658;DHT22;23500;53.268;8.308;2023-03-01T04:49:38;15.10;57.10
37658;DHT22;23500;53.268;8.308;2023-03-01T04:52:04;15.10;56.90
37658;DHT22;23500;53.268;8.308;2023-03-01T04:54:31;15.10;56.70
37658;DHT22;23500;53.268;8.308;2023-03-01T04:56:57;15.10;56.90
37658;DHT22;23500;53.268;8.308;2023-03-01T04:59:23;15.10;56.70
37658;DHT22;23500;53.268;8.308;2023-03-01T05:01:50;15.10;56.80
37658;DHT22;23500;53.268;8.308;2023-03-01T05:04:16;15.10;57.00
37658;DHT22;23500;53.268;8.308;2023-03-01T05:06:41;15.10;57.10
37658;DHT22;23500;53.268;8.308;2023-03-01T05:09:07;15.10;57.00
37658;DHT22;23500;53.268;8.308;2023-03-01T05:11:33;15.10;56.70
37658;DHT22;23500;53.268;8.308;2023-03-01T05:14:03;15.10;57.00
37658;DHT22;23500;53.268;8.308;2023-03-01T05:16:29;15.10;57.20
37658;DHT22;23500;53.268;8.308;2023-03-01T05:18:56;15.10;57.20
37658;DHT22;23500;53.268;8.308;2023-03-01T05:21:22;15.10;57.40
37658;DHT22;23500;53.268;8.308;2023-03-01T05:23:48;15.00;57.30
37658;DHT22;23500;53.268;8.308;2023-03-01T05:26:14;15.00;57.80
37658;DHT22;23500;53.268;8.308;2023-03-01T05:28:40;15.00;58.20
37658;DHT22;23500;53.268;8.308;2023-03-01T05:31:07;15.00;57.80
37658;DHT22;23500;53.268;8.308;2023-03-01T05:33:40;15.00;57.60
37658;DHT22;23500;53.268;8.308;2023-03-01T05:36:07;14.90;58.20
37658;DHT22;23500;53.268;8.308;2023-03-01T05:38:33;14.90;58.20
37658;DHT22;23500;53.268;8.308;2023-03-01T05:40:59;14.90;58.20
37658;DHT22;23500;53.268;8.308;2023-03-01T05:43:25;14.80;58.10
37658;DHT22;23500;53.268;8.308;2023-03-01T05:45:51;14.80;58.50
37658;DHT22;23500;53.268;8.308;2023-03-01T05:48:17;14.80;58.50
37658;DHT22;23500;53.268;8.308;2023-03-01T05:50:45;14.70;58.20
37658;DHT22;23500;53.268;8.308;2023-03-01T05:53:17;14.70;57.50
37658;DHT22;23500;53.268;8.308;2023-03-01T05:55:44;14.70;57.60
37658;DHT22;23500;53.268;8.308;2023-03-01T05:58:14;14.80;57.70
37658;DHT22;23500;53.268;8.308;2023-03-01T06:00:41;14.80;57.90
37658;DHT22;23500;53.268;8.308;2023-03-01T06:03:10;14.90;58.10
37658;DHT22;23500;53.268;8.308;2023-03-01T06:05:35;15.00;58.30
37658;DHT22;23500;53.268;8.308;2023-03-01T06:08:01;15.00;58.00
37658;DHT22;23500;53.268;8.308;2023-03-01T06:10:28;15.10;57.70
37658;DHT22;23500;53.268;8.308;2023-03-01T06:12:53;15.10;57.50
37658;DHT22;23500;53.268;8.308;2023-03-01T06:15:20;15.10;57.30
37658;DHT22;23500;53.268;8.308;2023-03-01T06:17:46;15.20;57.10
37658;DHT22;23500;53.268;8.308;2023-03-01T06:20:15;15.20;56.60
37658;DHT22;23500;53.268;8.308;2023-03-01T06:22:41;15.20;56.60
37658;DHT22;23500;53.268;8.308;2023-03-01T06:25:08;15.20;56.90
37658;DHT22;23500;53.268;8.308;2023-03-01T06:27:34;15.10;56.70
37658;DHT22;23500;53.268;8.308;2023-03-01T06:30:00;15.10;57.00
37658;DHT22;23500;53.268;8.308;2023-03-01T06:32:26;15.10;57.20
37658;DHT22;23500;53.268;8.308;2023-03-01T06:34:52;15.00;57.00
37658;DHT22;23500;53.268;8.308;2023-03-01T06:37:18;15.00;57.30
37658;DHT22;23500;53.268;8.308;2023-03-01T06:39:43;15.00;57.60
37658;DHT22;23500;53.268;8.308;2023-03-01T06:42:09;14.90;57.70
37658;DHT22;23500;53.268;8.308;2023-03-01T06:44:35;14.90;58.70
37658;DHT22;23500;53.268;8.308;2023-03-01T06:47:02;14.80;58.80
37658;DHT22;23500;53.268;8.308;2023-03-01T06:49:27;14.80;59.00
37658;DHT22;23500;53.268;8.308;2023-03-01T06:51:53;14.80;59.50
37658;DHT22;23500;53.268;8.308;2023-03-01T06:54:18;14.80;60.50
37658;DHT22;23500;53.268;8.308;2023-03-01T06:56:48;14.80;59.80
37658;DHT22;23500;53.268;8.308;2023-03-01T06:59:15;14.80;59.40
37658;DHT22;23500;53.268;8.308;2023-03-01T07:01:40;14.80;59.80
37658;DHT22;23500;53.268;8.308;2023-03-01T07:04:06;14.70;59.80
37658;DHT22;23500;53.268;8.308;2023-03-01T07:06:32;14.70;59.60
37658;DHT22;23500;53.268;8.308;2023-03-01T07:08:58;14.70;59.90
37658;DHT22;23500;53.268;8.308;2023-03-01T07:11:23;14.70;59.60
37658;DHT22;23500;53.268;8.308;2023-03-01T07:13:49;14.70;59.70
37658;DHT22;23500;53.268;8.308;2023-03-01T07:16:15;14.60;59.80
37658;DHT22;23500;53.268;8.308;2023-03-01T07:18:41;14.60;59.80
37658;DHT22;23500;53.268;8.308;2023-03-01T07:21:09;14.60;59.80
37658;DHT22;23500;53.268;8.308;2023-03-01T07:23:36;14.50;60.10
37658;DHT22;23500;53.268;8.308;2023-03-01T07:26:02;14.50;60.00
37658;DHT22;23500;53.268;8.308;2023-03-01T07:28:28;14.50;60.20
37658;DHT22;23500;53.268;8.308;2023-03-01T07:30:54;14.50;60.30
37658;DHT22;23500;53.268;8.308;2023-03-01T07:33:20;14.50;60.30
37658;DHT22;23500;53.268;8.308;2023-03-01T07:35:46;14.40;60.60
37658;DHT22;23500;53.268;8.308;2023-03-01T07:38:11;14.40;60.60
37658;DHT22;23500;53.268;8.308;2023-03-01T07:40:37;14.40;60.90
37658;DHT22;23500;53.268;8.308;2023-03-01T07:43:03;14.40;61.00
37658;DHT22;23500;53.268;8.308;2023-03-01T07:45:29;14.40;61.10
37658;DHT22;23500;53.268;8.308;2023-03-01T07:47:55;14.40;61.00
37658;DHT22;23500;53.268;8.308;2023-03-01T07:50:22;14.40;61.50
37658;DHT22;23500;53.268;8.308;2023-03-01T07:52:49;14.40;61.30
37658;DHT22;23500;53.268;8.308;2023-03-01T07:55:15;14.40;61.30
37658;DHT22;23500;53.268;8.308;2023-03-01T07:57:42;14.30;61.30
37658;DHT22;23500;53.268;8.308;2023-03-01T08:00:11;14.30;61.40
37658;DHT22;23500;53.268;8.308;2023-03-01T08:02:37;14.30;61.70
37658;DHT22;23500;53.268;8.308;2023-03-01T08:05:02;14.30;61.80
37658;DHT22;23500;53.268;8.308;2023-03-01T08:07:28;14.30;61.70
37658;DHT22;23500;53.268;8.308;2023-03-01T08:09:54;14.30;61.70
37658;DHT22;23500;53.268;8.308;2023-03-01T08:12:19;14.30;62.00
37658;DHT22;23500;53.268;8.308;2023-03-01T08:14:45;14.30;61.80
37658;DHT22;23500;53.268;8.308;2023-03-01T08:17:13;14.30;62.00
37658;DHT22;23500;53.268;8.308;2023-03-01T08:19:39;14.30;62.40
37658;DHT22;23500;53.268;8.308;2023-03-01T08:22:05;14.30;62.20
37658;DHT22;23500;53.268;8.308;2023-03-01T08:24:31;14.30;61.90
37658;DHT22;23500;53.268;8.308;2023-03-01T08:26:56;14.30;62.20
37658;DHT22;23500;53.268;8.308;2023-03-01T08:29:22;14.30;62.10
37658;DHT22;23500;53.268;8.308;2023-03-01T08:31:50;14.30;62.30
37658;DHT22;23500;53.268;8.308;2023-03-01T08:34:17;14.30;62.30
37658;DHT22;23500;53.268;8.308;2023-03-01T08:36:44;14.30;62.20
37658;DHT22;23500;53.268;8.308;2023-03-01T08:39:13;14.30;62.10
37658;DHT22;23500;53.268;8.308;2023-03-01T08:41:39;14.40;62.40
37658;DHT22;23500;53.268;8.308;2023-03-01T08:44:06;14.40;63.10
37658;DHT22;23500;53.268;8.308;2023-03-01T08:46:38;14.40;62.10
37658;DHT22;23500;53.268;8.308;2023-03-01T08:49:08;14.40;62.70
37658;DHT22;23500;53.268;8.308;2023-03-01T08:51:35;14.40;62.60
37658;DHT22;23500;53.268;8.308;2023-03-01T08:54:06;14.50;62.60
37658;DHT22;23500;53.268;8.308;2023-03-01T08:56:32;14.50;62.80
37658;DHT22;23500;53.268;8.308;2023-03-01T08:58:58;14.50;62.40
37658;DHT22;23500;53.268;8.308;2023-03-01T09:01:24;14.50;62.60
37658;DHT22;23500;53.268;8.308;2023-03-01T09:03:50;14.50;62.70
37658;DHT22;23500;53.268;8.308;2023-03-01T09:06:16;14.40;62.70
37658;DHT22;23500;53.268;8.308;2023-03-01T09:08:46;14.40;62.70
37658;DHT22;23500;53.268;8.308;2023-03-01T09:11:15;14.40;62.90
37658;DHT22;23500;53.268;8.308;2023-03-01T09:13:42;14.50;62.70
37658;DHT22;23500;53.268;8.308;2023-03-01T09:16:09;14.50;63.00
37658;DHT22;23500;53.268;8.308;2023-03-01T09:18:35;14.40;62.90
37658;DHT22;23500;53.268;8.308;2023-03-01T09:21:09;14.50;63.30
37658;DHT22;23500;53.268;8.308;2023-03-01T09:23:40;14.40;63.50
37658;DHT22;23500;53.268;8.308;2023-03-01T09:26:12;14.50;63.70
37658;DHT22;23500;53.268;8.308;2023-03-01T09:28:39;14.40;63.50
37658;DHT22;23500;53.268;8.308;2023-03-01T09:31:06;14.40;63.60
37658;DHT22;23500;53.268;8.308;2023-03-01T09:33:32;14.40;63.50
37658;DHT22;23500;53.268;8.308;2023-03-01T09:35:59;14.40;63.60
37658;DHT22;23500;53.268;8.308;2023-03-01T09:38:25;14.40;63.80
37658;DHT22;23500;53.268;8.308;2023-03-01T09:40:51;14.40;63.70
37658;DHT22;23500;53.268;8.308;2023-03-01T09:43:25;14.40;63.80
37658;DHT22;23500;53.268;8.308;2023-03-01T09:45:54;14.40;64.00
37658;DHT22;23500;53.268;8.308;2023-03-01T09:48:22;14.40;64.00
37658;DHT22;23500;53.268;8.308;2023-03-01T09:50:49;14.40;64.10
37658;DHT22;23500;53.268;8.308;2023-03-01T09:53:20;14.40;64.10
37658;DHT22;23500;53.268;8.308;2023-03-01T09:56:05;14.40;64.20
37658;DHT22;23500;53.268;8.308;2023-03-01T10:10:29;14.40;64.30
37658;DHT22;23500;53.268;8.308;2023-03-01T10:13:01;14.40;64.40
37658;DHT22;23500;53.268;8.308;2023-03-01T10:15:40;14.40;64.30
37658;DHT22;23500;53.268;8.308;2023-03-01T10:18:20;14.40;65.00
37658;DHT22;23500;53.268;8.308;2023-03-01T10:20:59;14.40;64.90
37658;DHT22;23500;53.268;8.308;2023-03-01T10:23:27;14.40;64.50
37658;DHT22;23500;53.268;8.308;2023-03-01T10:26:19;14.40;64.40
37658;DHT22;23500;53.268;8.308;2023-03-01T10:31:27;14.40;64.70
37658;DHT22;23500;53.268;8.308;2023-03-01T10:34:02;14.40;64.50
37658;DHT22;23500;53.268;8.308;2023-03-01T10:36:32;14.40;64.20
37658;DHT22;23500;53.268;8.308;2023-03-01T10:38:58;14.40;63.60
37658;DHT22;23500;53.268;8.308;2023-03-01T10:41:26;14.40;64.20
37658;DHT22;23500;53.268;8.308;2023-03-01T10:43:57;14.40;64.10
37658;DHT22;23500;53.268;8.308;2023-03-01T10:46:28;14.40;63.60
37658;DHT22;23500;53.268;8.308;2023-03-01T10:49:23;14.40;63.20
37658;DHT22;23500;53.268;8.308;2023-03-01T10:51:52;14.50;63.70
37658;DHT22;23500;53.268;8.308;2023-03-01T10:54:32;14.60;63.10
37658;DHT22;23500;53.268;8.308;2023-03-01T10:57:04;14.90;64.40
37658;DHT22;23500;53.268;8.308;2023-03-01T10:59:31;16.00;61.30
37658;DHT22;23500;53.268;8.308;2023-03-01T11:02:17;17.20;58.00
37658;DHT22;23500;53.268;8.308;2023-03-01T11:05:13;18.40;55.00
37658;DHT22;23500;53.268;8.308;2023-03-01T11:07:53;19.60;52.20
37658;DHT22;23500;53.268;8.308;2023-03-01T11:10:30;20.50;50.10
37658;DHT22;23500;53.268;8.308;2023-03-01T11:15:42;21.90;47.10
37658;DHT22;23500;53.268;8.308;2023-03-01T11:18:22;22.50;45.90
37658;DHT22;23500;53.268;8.308;2023-03-01T11:20:49;22.70;45.40
37658;DHT22;23500;53.268;8.308;2023-03-01T11:23:16;22.70;45.40
37658;DHT22;23500;53.268;8.308;2023-03-01T11:25:47;22.80;45.30
37658;DHT22;23500;53.268;8.308;2023-03-01T11:28:17;22.70;46.00
37658;DHT22;23500;53.268;8.308;2023-03-01T11:31:01;22.50;45.60
37658;DHT22;23500;53.268;8.308;2023-03-01T11:36:32;22.30;46.20
37658;DHT22;23500;53.268;8.308;2023-03-01T11:42:17;21.70;46.70
37658;DHT22;23500;53.268;8.308;2023-03-01T11:44:46;21.50;47.10
37658;DHT22;23500;53.268;8.308;2023-03-01T11:47:25;21.40;47.70
37658;DHT22;23500;53.268;8.308;2023-03-01T12:04:07;20.00;50.90
37658;DHT22;23500;53.268;8.308;2023-03-01T12:06:56;19.80;51.40
37658;DHT22;23500;53.268;8.308;2023-03-01T12:10:26;19.60;51.80
37658;DHT22;23500;53.268;8.308;2023-03-01T12:18:10;19.20;52.10
37658;DHT22;23500;53.268;8.308;2023-03-01T12:24:03;19.10;52.50
37658;DHT22;23500;53.268;8.308;2023-03-01T12:26:43;19.20;52.40
37658;DHT22;23500;53.268;8.308;2023-03-01T12:29:34;19.30;52.20
37658;DHT22;23500;53.268;8.308;2023-03-01T12:32:34;19.40;52.00
37658;DHT22;23500;53.268;8.308;2023-03-01T12:40:37;19.40;51.80
37658;DHT22;23500;53.268;8.308;2023-03-01T12:51:00;19.10;52.60
37658;DHT22;23500;53.268;8.308;2023-03-01T12:53:37;19.20;52.40
37658;DHT22;23500;53.268;8.308;2023-03-01T12:56:11;19.70;51.60
37658;DHT22;23500;53.268;8.308;2023-03-01T13:04:20;21.10;48.50
37658;DHT22;23500;53.268;8.308;2023-03-01T13:07:19;21.50;47.70
37658;DHT22;23500;53.268;8.308;2023-03-01T13:10:02;21.70;47.10
37658;DHT22;23500;53.268;8.308;2023-03-01T13:15:42;21.90;47.60
37658;DHT22;23500;53.268;8.308;2023-03-01T13:20:49;21.60;47.70
37658;DHT22;23500;53.268;8.308;2023-03-01T13:26:12;21.10;48.60
37658;DHT22;23500;53.268;8.308;2023-03-01T13:33:56;20.20;49.50
37658;DHT22;23500;53.268;8.308;2023-03-01T13:38:57;19.70;49.80
37658;DHT22;23500;53.268;8.308;2023-03-01T13:44:35;19.30;50.30
37658;DHT22;23500;53.268;8.308;2023-03-01T13:52:06;19.00;52.80
37658;DHT22;23500;53.268;8.308;2023-03-01T13:54:47;19.10;52.60
37658;DHT22;23500;53.268;8.308;2023-03-01T13:57:21;19.40;52.20
37658;DHT22;23500;53.268;8.308;2023-03-01T13:59:48;19.70;51.40
37658;DHT22;23500;53.268;8.308;2023-03-01T14:02:15;20.20;50.60
37658;DHT22;23500;53.268;8.308;2023-03-01T14:04:41;20.50;50.00
37658;DHT22;23500;53.268;8.308;2023-03-01T14:07:18;20.60;49.40
37658;DHT22;23500;53.268;8.308;2023-03-01T14:09:47;20.80;49.10
37658;DHT22;23500;53.268;8.308;2023-03-01T14:15:06;20.90;48.80
37658;DHT22;23500;53.268;8.308;2023-03-01T14:20:42;20.80;49.00
37658;DHT22;23500;53.268;8.308;2023-03-01T14:23:15;20.70;48.90
37658;DHT22;23500;53.268;8.308;2023-03-01T14:28:32;20.40;49.60
37658;DHT22;23500;53.268;8.308;2023-03-01T14:31:00;20.20;50.10
37658;DHT22;23500;53.268;8.308;2023-03-01T14:33:29;20.10;50.40
37658;DHT22;23500;53.268;8.308;2023-03-01T14:38:36;19.70;50.90
37658;DHT22;23500;53.268;8.308;2023-03-01T14:41:10;19.50;51.20
37658;DHT22;23500;53.268;8.308;2023-03-01T14:43:38;19.40;51.40
37658;DHT22;23500;53.268;8.308;2023-03-01T14:46:06;19.30;51.90
37658;DHT22;23500;53.268;8.308;2023-03-01T14:48:32;19.30;52.20
37658;DHT22;23500;53.268;8.308;2023-03-01T14:50:58;19.30;52.00
37658;DHT22;23500;53.268;8.308;2023-03-01T14:53:27;19.30;52.00
37658;DHT22;23500;53.268;8.308;2023-03-01T14:56:00;19.40;51.90
37658;DHT22;23500;53.268;8.308;2023-03-01T14:58:32;19.50;51.70
37658;DHT22;23500;53.268;8.308;2023-03-01T15:00:59;19.60;51.40
37658;DHT22;23500;53.268;8.308;2023-03-01T15:03:32;19.70;51.30
37658;DHT22;23500;53.268;8.308;2023-03-01T15:06:01;19.80;50.90
37658;DHT22;23500;53.268;8.308;2023-03-01T15:08:27;19.90;50.70
37658;DHT22;23500;53.268;8.308;2023-03-01T15:13:31;20.00;50.40
37658;DHT22;23500;53.268;8.308;2023-03-01T15:16:27;20.00;50.40
37658;DHT22;23500;53.268;8.308;2023-03-01T15:19:03;20.00;50.50
37658;DHT22;23500;53.268;8.308;2023-03-01T15:21:37;20.00;50.60
37658;DHT22;23500;53.268;8.308;2023-03-01T15:24:17;20.00;50.50
37658;DHT22;23500;53.268;8.308;2023-03-01T15:27:00;19.90;50.70
37658;DHT22;23500;53.268;8.308;2023-03-01T15:29:33;19.80;50.70
37658;DHT22;23500;53.268;8.308;2023-03-01T15:32:29;19.70;50.90
37658;DHT22;23500;53.268;8.308;2023-03-01T15:34:59;19.50;50.80
37658;DHT22;23500;53.268;8.308;2023-03-01T15:37:44;19.40;51.20
37658;DHT22;23500;53.268;8.308;2023-03-01T15:40:30;19.30;51.30
37658;DHT22;23500;53.268;8.308;2023-03-01T15:42:59;19.20;51.50
37658;DHT22;23500;53.268;8.308;2023-03-01T15:45:27;19.10;52.40
37658;DHT22;23500;53.268;8.308;2023-03-01T15:47:58;19.10;52.20
37658;DHT22;23500;53.268;8.308;2023-03-01T15:50:34;19.10;52.30
37658;DHT22;23500;53.268;8.308;2023-03-01T15:53:05;19.10;52.40
37658;DHT22;23500;53.268;8.308;2023-03-01T15:55:33;19.20;52.10
37658;DHT22;23500;53.268;8.308;2023-03-01T15:58:13;19.20;52.10
37658;DHT22;23500;53.268;8.308;2023-03-01T16:00:40;19.30;52.00
37658;DHT22;23500;53.268;8.308;2023-03-01T16:03:06;19.30;52.10
37658;DHT22;23500;53.268;8.308;2023-03-01T16:05:35;19.40;51.70
37658;DHT22;23500;53.268;8.308;2023-03-01T16:08:01;19.50;51.60
37658;DHT22;23500;53.268;8.308;2023-03-01T16:10:28;19.60;51.30
37658;DHT22;23500;53.268;8.308;2023-03-01T16:12:54;19.70;51.20
37658;DHT22;23500;53.268;8.308;2023-03-01T16:15:28;19.80;51.00
37658;DHT22;23500;53.268;8.308;2023-03-01T16:17:55;19.80;50.90
37658;DHT22;23500;53.268;8.308;2023-03-01T16:20:22;19.70;50.80
37658;DHT22;23500;53.268;8.308;2023-03-01T16:22:48;19.60;51.00
37658;DHT22;23500;53.268;8.308;2023-03-01T16:25:16;19.40;51.00
37658;DHT22;23500;53.268;8.308;2023-03-01T16:27:42;19.30;51.60
37658;DHT22;23500;53.268;8.308;2023-03-01T16:30:09;19.10;51.20
37658;DHT22;23500;53.268;8.308;2023-03-01T16:32:39;19.00;51.70
37658;DHT22;23500;53.268;8.308;2023-03-01T16:35:06;18.90;51.90
37658;DHT22;23500;53.268;8.308;2023-03-01T16:37:32;18.80;51.60
37658;DHT22;23500;53.268;8.308;2023-03-01T16:39:58;18.70;52.20
37658;DHT22;23500;53.268;8.308;2023-03-01T16:42:24;18.60;52.60
37658;DHT22;23500;53.268;8.308;2023-03-01T16:44:55;18.60;52.70
37658;DHT22;23500;53.268;8.308;2023-03-01T16:47:21;18.50;53.40
37658;DHT22;23500;53.268;8.308;2023-03-01T16:49:47;18.60;53.30
37658;DHT22;23500;53.268;8.308;2023-03-01T16:52:16;18.60;53.20
37658;DHT22;23500;53.268;8.308;2023-03-01T16:54:42;18.70;53.10
37658;DHT22;23500;53.268;8.308;2023-03-01T16:57:07;18.80;52.80
37658;DHT22;23500;53.268;8.308;2023-03-01T16:59:33;18.90;52.70
37658;DHT22;23500;53.268;8.308;2023-03-01T17:01:59;19.10;52.40
37658;DHT22;23500;53.268;8.308;2023-03-01T17:04:24;19.20;52.00
37658;DHT22;23500;53.268;8.308;2023-03-01T17:06:50;19.40;51.70
37658;DHT22;23500;53.268;8.308;2023-03-01T17:09:16;19.60;51.40
37658;DHT22;23500;53.268;8.308;2023-03-01T17:11:42;19.70;51.00
37658;DHT22;23500;53.268;8.308;2023-03-01T17:14:08;19.70;50.70
37658;DHT22;23500;53.268;8.308;2023-03-01T17:16:34;19.70;50.70
37658;DHT22;23500;53.268;8.308;2023-03-01T17:19:00;19.70;50.50
37658;DHT22;23500;53.268;8.308;2023-03-01T17:21:26;19.60;50.60
37658;DHT22;23500;53.268;8.308;2023-03-01T17:23:56;19.40;50.90
37658;DHT22;23500;53.268;8.308;2023-03-01T17:26:22;19.20;51.00
37658;DHT22;23500;53.268;8.308;2023-03-01T17:28:47;19.10;51.10
37658;DHT22;23500;53.268;8.308;2023-03-01T17:31:18;18.90;50.70
37658;DHT22;23500;53.268;8.308;2023-03-01T17:33:44;18.80;51.20